Time;durP1;ratioP1;P1;durP2;ratioP2;P2;SDS_P1;SDS_P2;PMS_P1;PMS_P2;Temp;Humidity;BMP_temperature;BMP_pressure;BME280_temperature;BME280_humidity;BME280_pressure;Samples;Min_cycle;Max_cycle;Signal;HPM_P1;HPM_P2
2020/12/14 00:00:10;;;;;;;276.50;59.77;;;;;;;2.33;95.57;100904.94;5072588;28;20036;-69
2020/12/14 00:02:35;;;;;;;243.13;57.70;;;;;;;2.37;95.41;100898.53;5073530;28;20226;-69
2020/12/14 00:05:01;;;;;;;306.63;63.97;;;;;;;2.35;95.49;100903.06;5072481;28;20036;-69
2020/12/14 00:07:26;;;;;;;301.67;64.38;;;;;;;2.36;95.43;100909.16;5073226;28;20290;-69
2020/12/14 00:09:52;;;;;;;293.83;62.53;;;;;;;2.38;95.24;100908.09;5073450;28;20058;-69
2020/12/14 00:12:17;;;;;;;289.60;65.17;;;;;;;2.41;95.30;100907.91;5073293;28;20032;-69
2020/12/14 00:14:42;;;;;;;296.73;66.20;;;;;;;2.41;95.50;100901.78;5073359;28;20036;-69
2020/12/14 00:17:08;;;;;;;290.80;64.50;;;;;;;2.38;95.48;100900.19;5072021;28;20079;-69
2020/12/14 00:19:33;;;;;;;331.20;70.83;;;;;;;2.38;95.47;100908.09;5073350;28;20040;-69
2020/12/14 00:21:58;;;;;;;335.50;75.50;;;;;;;2.37;95.50;100901.16;5073138;28;20036;-69
2020/12/14 00:24:24;;;;;;;306.43;63.30;;;;;;;2.37;95.68;100895.88;5073217;28;20036;-69
2020/12/14 00:26:49;;;;;;;286.90;64.23;;;;;;;2.36;95.53;100890.72;5072855;28;20033;-69
2020/12/14 00:29:15;;;;;;;347.05;73.03;;;;;;;2.32;95.67;100883.03;5072103;28;20047;-69
2020/12/14 00:31:40;;;;;;;319.35;66.00;;;;;;;2.32;95.51;100871.66;5073055;28;20040;-69
2020/12/14 00:34:06;;;;;;;298.67;67.60;;;;;;;2.36;95.56;100869.63;5072986;28;20079;-69
2020/12/14 00:36:31;;;;;;;227.40;62.57;;;;;;;2.37;95.49;100866.91;5071752;28;20068;-69
2020/12/14 00:38:57;;;;;;;320.42;63.22;;;;;;;2.36;95.54;100851.19;5071966;28;20044;-69
2020/12/14 00:41:22;;;;;;;366.77;67.10;;;;;;;2.35;95.50;100855.63;5071773;28;20050;-69
2020/12/14 00:43:48;;;;;;;283.17;61.13;;;;;;;2.35;95.63;100850.34;5072819;28;20093;-69
2020/12/14 00:46:17;;;;;;;334.52;68.97;;;;;;;2.37;95.48;100858.16;5071381;28;20036;-69
2020/12/14 00:48:43;;;;;;;278.02;61.03;;;;;;;2.38;95.48;100860.66;5054764;28;20123;-69
2020/12/14 00:51:08;;;;;;;213.30;56.77;;;;;;;2.37;95.54;100864.28;5072626;28;20476;-69
2020/12/14 00:53:34;;;;;;;349.60;62.30;;;;;;;2.36;95.36;100870.47;5072676;28;20032;-69
2020/12/14 00:56:03;;;;;;;365.88;67.60;;;;;;;2.31;95.59;100876.06;5071242;28;20131;-69
2020/12/14 00:58:29;;;;;;;347.92;65.50;;;;;;;2.33;95.41;100875.97;5054867;28;20076;-69
2020/12/14 01:00:55;;;;;;;267.07;60.80;;;;;;;2.30;95.71;100870.91;5071351;28;20082;-69
2020/12/14 01:03:20;;;;;;;300.95;61.65;;;;;;;2.32;95.70;100880.41;5072260;28;20071;-69
2020/12/14 01:05:45;;;;;;;277.37;61.73;;;;;;;2.38;95.64;100887.03;5072084;28;20052;-69
2020/12/14 01:08:11;;;;;;;278.43;61.13;;;;;;;2.34;95.54;100877.63;5072371;28;20032;-69
2020/12/14 01:10:36;;;;;;;268.63;61.43;;;;;;;2.37;95.54;100880.09;5071324;28;20051;-69
2020/12/14 01:13:01;;;;;;;270.83;57.67;;;;;;;2.37;95.62;100884.50;5072446;28;20044;-69
2020/12/14 01:15:27;;;;;;;272.00;57.85;;;;;;;2.38;95.56;100881.75;5054307;28;20047;-69
2020/12/14 01:17:52;;;;;;;252.43;63.20;;;;;;;2.38;95.55;100884.38;5071992;28;20040;-69
2020/12/14 01:20:17;;;;;;;247.53;56.73;;;;;;;2.40;95.69;100887.75;5071987;28;20028;-69
2020/12/14 01:22:43;;;;;;;244.60;60.13;;;;;;;2.39;95.61;100880.81;5072064;28;20048;-69
2020/12/14 01:25:08;;;;;;;272.03;61.07;;;;;;;2.41;95.66;100878.06;5071065;28;20032;-69
2020/12/14 01:27:33;;;;;;;252.90;61.93;;;;;;;2.40;95.83;100864.03;5071659;28;20366;-69
2020/12/14 01:29:59;;;;;;;249.47;58.23;;;;;;;2.45;95.46;100866.38;5072060;28;20604;-69
2020/12/14 01:32:24;;;;;;;225.10;59.87;;;;;;;2.44;95.64;100865.53;5071798;28;20438;-69
2020/12/14 01:34:49;;;;;;;266.70;62.77;;;;;;;2.43;95.63;100857.72;5071923;28;20035;-69
2020/12/14 01:37:15;;;;;;;273.33;64.63;;;;;;;2.41;95.78;100841.16;5071458;28;20024;-69
2020/12/14 01:39:40;;;;;;;261.43;58.53;;;;;;;2.44;95.75;100831.28;5070745;28;20039;-69
2020/12/14 01:42:05;;;;;;;262.67;58.70;;;;;;;2.46;95.50;100818.00;5070522;28;20386;-69
2020/12/14 01:44:31;;;;;;;284.13;61.30;;;;;;;2.44;95.93;100818.09;5071741;28;20835;-69
2020/12/14 01:46:59;;;;;;;262.33;58.07;;;;;;;2.46;95.63;100808.28;5071280;28;20032;-69
2020/12/14 01:49:25;;;;;;;245.32;57.28;;;;;;;2.45;95.76;100805.75;5071501;28;20033;-69
2020/12/14 01:51:50;;;;;;;254.20;60.27;;;;;;;2.47;95.60;100801.22;5071494;28;20068;-69
2020/12/14 01:54:34;;;;;;;224.90;58.33;;;;;;;2.46;95.71;100810.91;5071560;28;20094;-69
2020/12/14 01:57:01;;;;;;;258.10;62.05;;;;;;;2.48;95.70;100809.03;5071218;28;20068;-69
2020/12/14 01:59:26;;;;;;;239.18;59.50;;;;;;;2.50;95.68;100804.47;5069913;28;20101;-69
2020/12/14 02:01:51;;;;;;;226.80;60.93;;;;;;;2.51;95.71;100808.81;5071406;28;20457;-69
2020/12/14 02:04:17;;;;;;;232.90;61.37;;;;;;;2.53;95.78;100816.59;5053579;28;20093;-69
2020/12/14 02:06:42;;;;;;;264.63;58.27;;;;;;;2.57;95.72;100817.22;5071228;28;20040;-69
2020/12/14 02:09:07;;;;;;;213.90;54.67;;;;;;;2.59;95.61;100813.50;5071139;28;20098;-68
2020/12/14 02:11:33;;;;;;;195.27;52.73;;;;;;;2.61;95.61;100801.06;5070486;28;20033;-69
2020/12/14 02:13:58;;;;;;;202.03;54.03;;;;;;;2.62;95.67;100789.59;5071283;28;20045;-69
2020/12/14 02:16:23;;;;;;;190.03;53.43;;;;;;;2.61;95.74;100787.06;5070966;28;20036;-69
2020/12/14 02:18:49;;;;;;;211.20;51.93;;;;;;;2.64;95.36;100787.66;5070222;28;20036;-69
2020/12/14 02:21:17;;;;;;;190.93;51.50;;;;;;;2.64;95.62;100782.38;5070243;28;20063;-69
2020/12/14 02:23:44;;;;;;;181.85;50.60;;;;;;;2.66;95.46;100784.94;5070023;28;20025;-69
2020/12/14 02:26:09;;;;;;;174.05;48.08;;;;;;;2.71;95.55;100785.44;5070953;28;20353;-69
2020/12/14 02:28:34;;;;;;;162.87;48.87;;;;;;;2.70;95.59;100791.66;5070243;28;20046;-69
2020/12/14 02:31:00;;;;;;;171.03;49.97;;;;;;;2.70;95.37;100795.13;5070170;28;20057;-69
2020/12/14 02:33:25;;;;;;;157.00;47.90;;;;;;;2.69;95.49;100804.03;5070131;28;20581;-69
2020/12/14 02:35:50;;;;;;;168.10;48.70;;;;;;;2.73;95.48;100797.53;5070912;28;20042;-69
2020/12/14 02:38:16;;;;;;;168.30;50.07;;;;;;;2.72;95.43;100805.59;5070010;28;20044;-69
2020/12/14 02:40:41;;;;;;;164.37;47.83;;;;;;;2.72;95.48;100808.22;5071062;28;20128;-68
2020/12/14 02:43:06;;;;;;;153.33;48.43;;;;;;;2.73;95.52;100804.63;5071007;28;20043;-69
2020/12/14 02:45:32;;;;;;;168.73;49.87;;;;;;;2.75;95.23;100800.09;5053155;28;20037;-69
2020/12/14 02:47:57;;;;;;;153.67;45.13;;;;;;;2.79;95.42;100800.72;5069893;28;20105;-68
2020/12/14 02:50:22;;;;;;;151.27;45.90;;;;;;;2.76;95.40;100799.13;5070921;28;20040;-69
2020/12/14 02:52:47;;;;;;;152.37;47.13;;;;;;;2.77;95.14;100808.72;5069782;28;20126;-69
2020/12/14 02:55:13;;;;;;;142.80;42.43;;;;;;;2.78;95.18;100791.94;5070776;28;20036;-69
2020/12/14 02:57:38;;;;;;;135.17;43.33;;;;;;;2.81;94.93;100794.38;5069723;28;20411;-69
2020/12/14 03:00:05;;;;;;;141.73;43.13;;;;;;;2.84;95.14;100788.03;5070946;28;20635;-69
2020/12/14 03:02:30;;;;;;;;;;;;;;;2.84;95.17;100782.75;5070292;28;20127;-69
2020/12/14 03:04:55;;;;;;;;;;;;;;;2.88;95.01;100774.53;5071117;28;20019;-69
2020/12/14 03:07:20;;;;;;;129.27;42.37;;;;;;;2.84;95.14;100777.50;5052743;28;19962;-69
2020/12/14 03:09:46;;;;;;;132.93;42.07;;;;;;;2.85;94.97;100760.69;5070266;28;20040;-69
2020/12/14 03:12:11;;;;;;;124.70;45.33;;;;;;;2.85;94.89;100758.91;5074609;28;20036;-69
2020/12/14 03:14:36;;;;;;;125.90;38.90;;;;;;;2.87;94.75;100759.63;5074472;28;20105;-69
2020/12/14 03:17:02;;;;;;;126.33;40.23;;;;;;;2.89;94.84;100756.91;5073193;28;20048;-69
2020/12/14 03:19:27;;;;;;;117.47;41.50;;;;;;;2.88;94.70;100756.06;5073564;28;20035;-69
2020/12/14 03:21:53;;;;;;;134.23;41.37;;;;;;;2.88;94.63;100761.34;5073117;28;20047;-69
2020/12/14 03:24:19;;;;;;;124.82;40.08;;;;;;;2.87;94.49;100764.91;5072270;28;20045;-69
2020/12/14 03:26:47;;;;;;;113.22;40.80;;;;;;;2.91;94.67;100752.34;5054713;28;20511;-69
2020/12/14 03:29:12;;;;;;;126.00;42.10;;;;;;;2.87;94.51;100754.34;5072566;28;20028;-69
2020/12/14 03:31:38;;;;;;;119.57;39.40;;;;;;;2.87;94.30;100745.63;5071466;28;20426;-69
2020/12/14 03:34:03;;;;;;;110.63;38.23;;;;;;;2.89;94.35;100747.19;5071571;28;20518;-69
2020/12/14 03:36:28;;;;;;;120.37;39.70;;;;;;;2.89;94.15;100749.81;5071130;28;20476;-69
2020/12/14 03:38:55;;;;;;;122.63;41.17;;;;;;;2.90;94.18;100751.53;5071908;28;20040;-69
2020/12/14 03:41:22;;;;;;;106.45;37.92;;;;;;;2.89;94.11;100751.63;5072962;28;20036;-69
2020/12/14 03:43:48;;;;;;;119.82;39.65;;;;;;;2.92;94.13;100749.56;5074052;28;20561;-69
2020/12/14 03:46:19;;;;;;;112.18;37.35;;;;;;;2.92;93.92;100749.56;5073645;28;20119;-69
2020/12/14 03:48:44;;;;;;;113.50;39.03;;;;;;;2.92;94.05;100741.66;5073864;28;20307;-69
2020/12/14 03:51:11;;;;;;;118.63;41.27;;;;;;;2.92;93.97;100738.19;5072785;28;20039;-69
2020/12/14 03:53:37;;;;;;;112.20;41.63;;;;;;;2.94;94.13;100744.19;5072610;28;20664;-69
2020/12/14 03:56:02;;;;;;;111.00;38.23;;;;;;;2.95;93.84;100744.09;5073504;28;20033;-69
2020/12/14 03:58:27;;;;;;;121.57;42.13;;;;;;;2.92;93.73;100746.94;5072726;28;20343;-69
2020/12/14 04:00:53;;;;;;;96.13;35.43;;;;;;;2.99;93.63;100743.88;5073504;28;20063;-69
2020/12/14 04:03:18;;;;;;;107.17;38.67;;;;;;;2.96;93.42;100737.03;5072580;28;20032;-69
2020/12/14 04:05:43;;;;;;;102.80;38.93;;;;;;;2.92;93.47;100746.09;5072294;28;20032;-69
2020/12/14 04:08:09;;;;;;;92.47;33.57;;;;;;;2.96;93.57;100739.66;5072610;28;20426;-69
2020/12/14 04:10:35;;;;;;;102.27;35.90;;;;;;;2.96;93.41;100732.59;5073551;28;20049;-69
2020/12/14 04:13:00;;;;;;;100.80;37.65;;;;;;;3.01;93.07;100731.41;5072476;28;20036;-69
2020/12/14 04:15:26;;;;;;;99.00;37.13;;;;;;;2.99;93.09;100730.69;5073389;28;20194;-69
2020/12/14 04:17:51;;;;;;;92.47;34.20;;;;;;;3.01;93.02;100726.13;5073080;28;20055;-69
2020/12/14 04:20:16;;;;;;;105.93;37.43;;;;;;;3.01;92.76;100723.50;5072131;28;20044;-69
2020/12/14 04:22:42;;;;;;;96.83;36.93;;;;;;;3.06;92.62;100697.59;5071628;28;20064;-69
2020/12/14 04:25:07;;;;;;;102.97;33.50;;;;;;;3.05;92.67;100698.59;5073201;28;20033;-69
2020/12/14 04:27:32;;;;;;;98.67;36.10;;;;;;;3.08;92.44;100706.25;5071803;28;20033;-69
2020/12/14 04:29:58;;;;;;;83.73;35.53;;;;;;;3.12;92.21;100708.53;5072177;28;20096;-69
2020/12/14 04:32:23;;;;;;;91.23;32.30;;;;;;;3.14;91.97;100696.09;5071927;28;20472;-69
2020/12/14 04:34:48;;;;;;;87.47;32.07;;;;;;;3.12;91.78;100700.63;5072938;28;20040;-69
2020/12/14 04:37:14;;;;;;;86.20;31.90;;;;;;;3.11;91.79;100695.47;5071713;28;20047;-69
2020/12/14 04:39:40;;;;;;;84.60;32.72;;;;;;;3.10;91.72;100705.19;5071960;28;20550;-69
2020/12/14 04:42:05;;;;;;;79.57;32.13;;;;;;;3.15;91.75;100712.75;5072772;28;20094;-70
2020/12/14 04:44:31;;;;;;;87.40;36.03;;;;;;;3.12;91.75;100713.00;5071981;28;20115;-69
2020/12/14 04:46:57;;;;;;;81.45;33.20;;;;;;;3.17;91.40;100709.03;5072416;28;20041;-69
2020/12/14 04:49:23;;;;;;;;;;;;;;;3.21;91.57;100717.56;5073064;28;20032;-69
2020/12/14 04:51:48;;;;;;;;;;;;;;;3.24;91.43;100711.22;5072226;28;19912;-69
2020/12/14 04:54:15;;;;;;;78.60;30.47;;;;;;;3.25;91.23;100720.81;5071765;28;19947;-69
2020/12/14 04:56:41;;;;;;;72.15;30.90;;;;;;;3.27;91.07;100705.69;5072270;28;20040;-69
2020/12/14 04:59:08;;;;;;;78.78;32.17;;;;;;;3.25;90.90;100715.53;5071527;28;20130;-69
2020/12/14 05:01:34;;;;;;;78.72;32.42;;;;;;;3.23;91.08;100718.31;5072299;28;20037;-69
2020/12/14 05:04:00;;;;;;;84.53;33.67;;;;;;;3.22;91.17;100723.69;5072114;28;20111;-69
2020/12/14 05:06:25;;;;;;;78.25;33.10;;;;;;;3.21;91.13;100707.03;5072103;28;20040;-69
2020/12/14 05:08:50;;;;;;;81.77;31.80;;;;;;;3.22;90.91;100716.59;5071384;28;20037;-69
2020/12/14 05:11:32;;;;;;;74.57;32.50;;;;;;;3.23;90.99;100710.38;5072370;28;20036;-69
2020/12/14 05:14:11;;;;;;;82.68;32.83;;;;;;;3.22;90.94;100721.03;5071268;28;20138;-69
2020/12/14 05:16:36;;;;;;;83.13;32.92;;;;;;;3.20;91.07;100718.50;5071755;28;20075;-69
2020/12/14 05:19:19;;;;;;;78.83;32.20;;;;;;;3.21;91.01;100714.94;5071232;28;20068;-69
2020/12/14 05:22:03;;;;;;;86.53;32.75;;;;;;;3.20;90.80;100713.22;5071057;28;20560;-69
2020/12/14 05:24:30;;;;;;;78.75;30.00;;;;;;;3.19;90.99;100701.00;5071937;28;20036;-69
2020/12/14 05:26:56;;;;;;;77.50;30.05;;;;;;;3.20;90.80;100700.03;5070685;28;20036;-69
2020/12/14 05:29:31;;;;;;;76.53;32.28;;;;;;;3.17;90.83;100697.66;5070947;28;20458;-69
2020/12/14 05:32:08;;;;;;;75.05;32.33;;;;;;;3.16;90.54;100694.19;5070983;28;20680;-69
2020/12/14 05:34:37;;;;;;;80.50;32.20;;;;;;;3.18;90.63;100691.41;5069938;28;20036;-69
2020/12/14 05:37:05;;;;;;;76.63;32.28;;;;;;;3.18;90.64;100691.41;5070484;28;20173;-69
2020/12/14 05:39:31;;;;;;;72.63;28.70;;;;;;;3.21;90.71;100688.56;5071523;28;20028;-69
2020/12/14 05:42:07;;;;;;;71.33;30.20;;;;;;;3.23;90.35;100683.13;5070689;28;20053;-69
2020/12/14 05:44:32;;;;;;;71.80;28.15;;;;;;;3.29;89.94;100672.97;5071616;28;20286;-69
2020/12/14 05:46:57;;;;;;;63.60;27.03;;;;;;;3.30;89.62;100673.78;5071416;28;20059;-69
2020/12/14 05:49:25;;;;;;;66.57;25.30;;;;;;;3.34;89.40;100686.63;5070782;28;20047;-69
2020/12/14 05:51:50;;;;;;;60.35;27.35;;;;;;;3.29;89.56;100670.31;5070502;28;20036;-69
2020/12/14 05:54:23;;;;;;;61.65;27.02;;;;;;;3.31;89.39;100672.84;5070565;28;20131;-69
2020/12/14 05:56:51;;;;;;;68.07;26.83;;;;;;;3.32;89.30;100662.16;5071139;28;20037;-69
2020/12/14 05:59:18;;;;;;;56.80;25.02;;;;;;;3.29;89.25;100659.78;5070515;28;20051;-69
2020/12/14 06:01:44;;;;;;;61.50;26.00;;;;;;;3.31;89.32;100660.50;5071303;28;20028;-69
2020/12/14 06:04:10;;;;;;;54.83;23.70;;;;;;;3.28;89.21;100652.81;5071294;28;20107;-69
2020/12/14 06:06:40;;;;;;;;;;;;;;;3.28;89.01;100657.25;5071373;28;20044;-69
2020/12/14 06:09:06;;;;;;;55.03;24.08;;;;;;;3.24;89.14;100661.09;5071390;28;20015;-69
2020/12/14 06:11:35;;;;;;;64.47;26.52;;;;;;;3.21;89.35;100656.03;5071282;28;20557;-69
2020/12/14 06:14:02;;;;;;;56.45;24.70;;;;;;;3.23;89.34;100662.03;5071307;28;20044;-69
2020/12/14 06:16:30;;;;;;;59.72;25.58;;;;;;;3.25;88.90;100662.75;5053281;28;20490;-68
2020/12/14 06:18:56;;;;;;;54.65;23.48;;;;;;;3.24;89.00;100666.38;5071256;28;20040;-69
2020/12/14 06:21:39;;;;;;;52.72;24.38;;;;;;;3.17;88.99;100656.28;5071186;28;20068;-69
2020/12/14 06:24:07;;;;;;;53.38;23.15;;;;;;;3.17;89.06;100647.53;5071354;28;20041;-69
2020/12/14 06:26:36;;;;;;;54.05;24.52;;;;;;;3.13;88.79;100651.34;5070776;28;20041;-69
2020/12/14 06:29:04;;;;;;;61.97;28.70;;;;;;;3.18;88.82;100662.38;5071159;28;20064;-69
2020/12/14 06:31:37;;;;;;;53.37;21.40;;;;;;;3.14;88.83;100655.69;5070959;28;20433;-69
2020/12/14 06:34:31;;;;;;;56.63;24.50;;;;;;;3.14;88.71;100661.78;5070255;28;20075;-69
2020/12/14 06:36:57;;;;;;;56.22;26.20;;;;;;;3.13;88.87;100657.44;5070692;28;20051;-69
2020/12/14 06:39:30;;;;;;;57.53;23.73;;;;;;;3.20;88.39;100663.09;5070164;28;20051;-69
2020/12/14 06:42:11;;;;;;;54.80;24.27;;;;;;;3.18;88.46;100657.09;5070828;28;20296;-69
2020/12/14 06:45:02;;;;;;;51.22;23.00;;;;;;;3.10;88.66;100656.88;5070243;28;20239;-69
2020/12/14 06:47:40;;;;;;;55.70;23.88;;;;;;;3.03;88.83;100650.38;5073836;28;20051;-69
2020/12/14 06:50:22;;;;;;;56.63;25.08;;;;;;;3.04;88.91;100652.03;5074197;28;20060;-69
2020/12/14 06:52:47;;;;;;;59.50;25.23;;;;;;;3.02;88.99;100651.31;5073950;28;20041;-69
2020/12/14 06:55:13;;;;;;;50.37;22.60;;;;;;;2.99;89.09;100636.56;5057371;28;20401;-69
2020/12/14 06:57:39;;;;;;;55.83;22.93;;;;;;;3.01;88.93;100641.72;5056938;28;20115;-69
2020/12/14 07:00:05;;;;;;;55.65;25.23;;;;;;;3.02;88.84;100631.06;5074044;28;20044;-69
2020/12/14 07:02:39;;;;;;;59.58;24.98;;;;;;;2.98;88.84;100632.25;5074597;28;20414;-69
2020/12/14 07:05:30;;;;;;;48.33;20.40;;;;;;;2.99;88.90;100636.56;5074585;28;20039;-69
2020/12/14 07:07:56;;;;;;;53.72;23.20;;;;;;;2.99;88.67;100641.84;5073388;28;20040;-69
2020/12/14 07:10:26;;;;;;;48.42;22.27;;;;;;;3.03;88.49;100632.75;5073753;28;20492;-69
2020/12/14 07:12:52;;;;;;;50.00;22.30;;;;;;;3.05;88.09;100632.63;5073550;28;20500;-69
2020/12/14 07:15:34;;;;;;;52.60;23.55;;;;;;;3.02;88.46;100628.44;5074494;28;20044;-69
2020/12/14 07:18:11;;;;;;;42.15;20.83;;;;;;;3.05;88.20;100632.63;5074276;28;20043;-69
2020/12/14 07:21:03;;;;;;;52.72;21.42;;;;;;;3.04;88.14;100636.22;5074392;28;20067;-69
2020/12/14 07:23:29;;;;;;;48.72;21.55;;;;;;;3.06;88.08;100644.84;5073227;28;20369;-69
2020/12/14 07:25:55;;;;;;;48.57;20.77;;;;;;;3.01;87.99;100633.81;5074081;28;20178;-69
2020/12/14 07:28:33;;;;;;;50.20;22.42;;;;;;;3.02;88.09;100633.72;5073149;28;20355;-69
2020/12/14 07:31:14;;;;;;;51.40;22.23;;;;;;;3.01;88.26;100639.94;5073310;28;20028;-69
2020/12/14 07:33:48;;;;;;;43.33;20.30;;;;;;;3.02;88.02;100627.56;5073951;28;20392;-69
2020/12/14 07:36:13;;;;;;;50.40;23.05;;;;;;;3.02;88.04;100627.56;5073722;28;20032;-69
2020/12/14 07:38:51;;;;;;;41.65;22.58;;;;;;;3.02;87.99;100639.00;5073978;28;20036;-69
2020/12/14 07:41:17;;;;;;;45.85;20.73;;;;;;;3.02;87.88;100639.00;5056245;28;20080;-69
2020/12/14 07:43:49;;;;;;;44.75;21.60;;;;;;;3.03;87.93;100632.75;5073872;28;20048;-69
2020/12/14 07:46:32;;;;;;;37.50;19.27;;;;;;;3.06;87.87;100621.13;5072733;28;20032;-69
2020/12/14 07:49:05;;;;;;;46.08;20.40;;;;;;;3.06;87.62;100626.38;5073898;28;20043;-69
2020/12/14 07:51:32;;;;;;;40.58;19.85;;;;;;;3.07;87.71;100630.72;5073948;28;20032;-69
2020/12/14 07:54:15;;;;;;;43.22;19.10;;;;;;;3.06;87.90;100637.78;5072773;28;20067;-69
2020/12/14 07:56:42;;;;;;;43.63;19.13;;;;;;;3.04;87.90;100642.31;5072492;28;20343;-69
2020/12/14 07:59:21;;;;;;;;;;;;;;;3.11;87.86;100642.69;5074118;28;20481;-69
2020/12/14 08:01:48;;;;;;;41.03;17.83;;;;;;;3.14;87.52;100631.94;5072616;28;19977;-69
2020/12/14 08:04:20;;;;;;;40.03;18.92;;;;;;;3.12;87.28;100626.75;5073534;28;20047;-69
2020/12/14 08:06:46;;;;;;;37.38;17.15;;;;;;;3.12;87.35;100618.03;5072465;28;20045;-69
2020/12/14 08:09:13;;;;;;;41.00;19.38;;;;;;;3.12;87.18;100608.31;5073548;28;20037;-68
2020/12/14 08:11:39;;;;;;;38.88;18.23;;;;;;;3.11;87.18;100605.78;5073257;28;20044;-69
2020/12/14 08:14:05;;;;;;;32.25;17.75;;;;;;;3.12;87.38;100612.75;5072563;28;20362;-69
2020/12/14 08:16:30;;;;;;;37.60;17.50;;;;;;;3.12;87.39;100602.19;5073067;28;20045;-69
2020/12/14 08:18:56;;;;;;;38.97;18.30;;;;;;;3.12;87.32;100603.03;5072482;28;20036;-69
2020/12/14 08:21:26;;;;;;;39.08;19.50;;;;;;;3.16;87.29;100600.97;5072307;28;20090;-69
2020/12/14 08:23:55;;;;;;;34.72;16.35;;;;;;;3.18;87.00;100612.25;5054793;28;20053;-69
2020/12/14 08:26:28;;;;;;;35.10;18.10;;;;;;;3.23;87.01;100612.75;5071978;28;20056;-69
2020/12/14 08:28:58;;;;;;;33.10;16.00;;;;;;;3.25;86.64;100618.75;5072405;28;20071;-68
2020/12/14 08:31:24;;;;;;;31.80;16.48;;;;;;;3.28;86.57;100622.97;5072328;28;20460;-69
2020/12/14 08:33:55;;;;;;;40.60;17.13;;;;;;;3.30;86.22;100627.16;5072175;28;20044;-69
2020/12/14 08:36:21;;;;;;;29.75;15.05;;;;;;;3.36;86.41;100639.88;5072280;28;20032;-69
2020/12/14 08:38:47;;;;;;;31.90;15.48;;;;;;;3.39;86.29;100641.41;5072895;28;20033;-69
2020/12/14 08:41:17;;;;;;;33.42;16.75;;;;;;;3.40;85.87;100650.19;5071849;28;20048;-68
2020/12/14 08:43:42;;;;;;;32.22;15.75;;;;;;;3.45;85.87;100634.84;5069913;28;20041;-69
2020/12/14 08:46:11;;;;;;;30.23;15.23;;;;;;;3.43;86.09;100629.69;5069272;28;20117;-69
2020/12/14 08:48:51;;;;;;;31.90;16.67;;;;;;;3.48;86.09;100624.03;5069451;28;20040;-69
2020/12/14 08:51:25;;;;;;;25.98;14.23;;;;;;;3.48;85.72;100606.41;5069550;28;20040;-69
2020/12/14 08:53:53;;;;;;;26.73;13.85;;;;;;;3.51;85.12;100613.22;5068365;28;20072;-69
2020/12/14 08:56:21;;;;;;;27.90;14.02;;;;;;;3.57;85.02;100615.41;5069368;28;20131;-69
2020/12/14 08:58:55;;;;;;;25.70;14.82;;;;;;;3.69;85.12;100622.34;5070860;28;20048;-69
2020/12/14 09:01:25;;;;;;;24.02;13.10;;;;;;;3.66;84.80;100621.78;5072441;28;20453;-69
2020/12/14 09:04:01;;;;;;;25.52;13.55;;;;;;;3.67;84.93;100616.34;5072381;28;20479;-68
2020/12/14 09:06:39;;;;;;;22.85;11.57;;;;;;;3.73;85.04;100613.22;5071336;28;20487;-68
2020/12/14 09:09:10;;;;;;;23.80;11.95;;;;;;;3.80;84.73;100609.13;5072239;28;20037;-68
2020/12/14 09:11:41;;;;;;;23.10;12.20;;;;;;;3.84;84.00;100595.69;5072355;28;20331;-68
2020/12/14 09:14:07;;;;;;;19.30;11.43;;;;;;;3.92;84.18;100593.28;5054534;28;20397;-68
2020/12/14 09:16:34;;;;;;;27.58;11.80;;;;;;;3.91;83.77;100589.81;5072018;28;20048;-68
2020/12/14 09:19:00;;;;;;;24.58;12.02;;;;;;;3.95;83.78;100585.94;5072175;28;20059;-68
2020/12/14 09:21:25;;;;;;;21.75;11.57;;;;;;;3.94;83.79;100589.56;5071061;28;20044;-68
2020/12/14 09:24:14;;;;;;;18.00;11.50;;;;;;;3.93;83.65;100593.16;5072049;28;20044;-68
2020/12/14 09:26:41;;;;;;;22.00;11.07;;;;;;;3.96;83.73;100581.50;5070589;28;20021;-68
2020/12/14 09:29:08;;;;;;;21.13;12.10;;;;;;;3.96;83.54;100586.78;5071991;28;20048;-68
2020/12/14 09:31:33;;;;;;;20.17;11.15;;;;;;;3.98;83.60;100579.56;5071929;28;20032;-68
2020/12/14 09:33:58;;;;;;;19.10;11.17;;;;;;;4.02;83.36;100581.00;5071935;28;20339;-68
2020/12/14 09:36:24;;;;;;;15.67;9.60;;;;;;;4.05;83.30;100569.34;5071621;28;20078;-68
2020/12/14 09:38:49;;;;;;;23.93;11.03;;;;;;;4.04;83.13;100580.88;5070944;28;20094;-68
2020/12/14 09:41:15;;;;;;;19.60;10.03;;;;;;;4.04;83.07;100583.53;5070579;28;20078;-68
2020/12/14 09:43:42;;;;;;;19.60;10.73;;;;;;;4.06;83.00;100584.25;5071767;28;20282;-68
2020/12/14 09:46:07;;;;;;;18.05;10.20;;;;;;;4.06;83.02;100586.88;5070419;28;20059;-68
2020/12/14 09:48:33;;;;;;;19.93;10.53;;;;;;;4.09;82.82;100578.69;5070683;28;20048;-68
2020/12/14 09:50:58;;;;;;;19.50;10.43;;;;;;;4.10;83.27;100568.03;5071677;28;20029;-69
2020/12/14 09:53:23;;;;;;;17.23;10.03;;;;;;;4.18;82.93;100567.38;5070476;28;20055;-68
2020/12/14 09:55:48;;;;;;;21.03;10.10;;;;;;;4.23;82.74;100558.09;5070146;28;20032;-68
2020/12/14 09:58:14;;;;;;;18.10;10.57;;;;;;;4.28;82.32;100564.81;5070474;28;20047;-68
2020/12/14 10:00:41;;;;;;;17.43;9.33;;;;;;;4.27;82.46;100560.50;5070518;28;20036;-68
2020/12/14 10:03:07;;;;;;;15.82;8.75;;;;;;;4.28;82.42;100564.81;5070322;28;20051;-68
2020/12/14 10:05:32;;;;;;;18.47;9.87;;;;;;;4.35;82.48;100561.53;5070388;28;20036;-68
2020/12/14 10:07:57;;;;;;;18.57;9.40;;;;;;;4.47;81.91;100564.97;5071207;28;20051;-68
2020/12/14 10:10:23;;;;;;;14.47;9.10;;;;;;;4.48;81.91;100568.47;5071169;28;20044;-69
2020/12/14 10:12:48;;;;;;;15.07;9.33;;;;;;;4.38;82.20;100576.34;5071290;28;20029;-68
2020/12/14 10:15:13;;;;;;;21.00;10.80;;;;;;;4.43;81.97;100563.56;5070697;28;20055;-68
2020/12/14 10:17:39;;;;;;;16.17;9.23;;;;;;;4.41;82.03;100561.03;5070672;28;20037;-68
2020/12/14 10:20:05;;;;;;;14.77;9.17;;;;;;;4.53;81.92;100561.00;5070664;28;20040;-68
2020/12/14 10:22:31;;;;;;;14.95;9.32;;;;;;;4.56;81.80;100560.72;5071037;28;20438;-68
2020/12/14 10:24:57;;;;;;;13.95;7.43;;;;;;;4.61;81.35;100562.03;5070129;28;20169;-68
2020/12/14 10:27:23;;;;;;;14.25;7.45;;;;;;;4.62;80.95;100558.41;5070927;28;20064;-68
2020/12/14 10:29:48;;;;;;;10.87;6.63;;;;;;;4.74;80.35;100561.00;5070877;28;20072;-68
2020/12/14 10:32:14;;;;;;;15.67;7.30;;;;;;;4.69;80.53;100553.44;5068998;28;20032;-68
2020/12/14 10:34:39;;;;;;;11.90;7.40;;;;;;;4.65;80.56;100549.38;5070133;28;20044;-68
2020/12/14 10:37:04;;;;;;;11.60;7.70;;;;;;;4.63;80.24;100544.22;5069973;28;20459;-68
2020/12/14 10:39:30;;;;;;;14.27;8.03;;;;;;;4.60;80.76;100543.66;5069979;28;20032;-68
2020/12/14 10:41:55;;;;;;;15.50;8.10;;;;;;;4.61;80.55;100543.53;5070056;28;20028;-68
2020/12/14 10:44:20;;;;;;;17.03;9.17;;;;;;;4.62;80.35;100549.66;5071007;28;20043;-68
2020/12/14 10:46:46;;;;;;;15.37;9.30;;;;;;;4.54;81.42;100544.16;5052595;28;20032;-68
2020/12/14 10:49:12;;;;;;;17.07;10.27;;;;;;;4.50;82.19;100543.59;5069955;28;20036;-69
2020/12/14 10:51:37;;;;;;;15.57;8.30;;;;;;;4.46;82.26;100541.31;5070991;28;20119;-69
2020/12/14 10:54:03;;;;;;;16.07;7.67;;;;;;;4.48;82.55;100540.22;5053047;28;20127;-69
2020/12/14 10:56:28;;;;;;;11.47;7.50;;;;;;;4.46;82.81;100539.50;5070653;28;20446;-68
2020/12/14 10:58:55;;;;;;;12.13;7.43;;;;;;;4.47;83.36;100549.09;5070080;28;20424;-69
2020/12/14 11:01:21;;;;;;;12.30;6.95;;;;;;;4.47;83.68;100543.81;5052917;28;20573;-69
2020/12/14 11:03:46;;;;;;;14.17;8.33;;;;;;;4.47;83.68;100543.81;5069864;28;20075;-69
2020/12/14 11:06:11;;;;;;;12.90;7.13;;;;;;;4.39;83.42;100527.78;5070451;28;20086;-69
2020/12/14 11:08:37;;;;;;;14.63;7.50;;;;;;;4.43;83.72;100540.59;5070638;28;20036;-69
2020/12/14 11:11:02;;;;;;;12.57;7.87;;;;;;;4.47;83.40;100541.19;5069827;28;20578;-69
2020/12/14 11:13:28;;;;;;;13.70;7.20;;;;;;;4.49;82.95;100530.47;5069821;28;20416;-69
2020/12/14 11:15:54;;;;;;;11.73;7.50;;;;;;;4.57;82.53;100534.16;5070384;28;20616;-68
2020/12/14 11:18:20;;;;;;;10.93;6.65;;;;;;;4.62;81.70;100526.69;5070674;28;20379;-68